sensor_id;sensor_type;location;lat;lon;timestamp;P1;durP1;ratioP1;P2;durP2;ratioP2
3922;SDS011;1976;51.694;6.256;2023-08-17T00:00:29;6.90;;;2.03;;
3922;SDS011;1976;51.694;6.256;2023-08-17T00:02:55;8.60;;;2.30;;
3922;SDS011;1976;51.694;6.256;2023-08-17T00:05:20;2.03;;;1.70;;
3922;SDS011;1976;51.694;6.256;2023-08-17T00:07:46;6.70;;;2.10;;
3922;SDS011;1976;51.694;6.256;2023-08-17T00:10:12;7.97;;;1.53;;
3922;SDS011;1976;51.694;6.256;2023-08-17T00:12:37;10.17;;;2.23;;
3922;SDS011;1976;51.694;6.256;2023-08-17T00:15:03;7.90;;;2.07;;
3922;SDS011;1976;51.694;6.256;2023-08-17T00:17:30;8.93;;;1.67;;
3922;SDS011;1976;51.694;6.256;2023-08-17T00:19:55;4.33;;;2.00;;
3922;SDS011;1976;51.694;6.256;2023-08-17T00:22:21;8.40;;;1.80;;
3922;SDS011;1976;51.694;6.256;2023-08-17T00:24:47;5.97;;;1.73;;
3922;SDS011;1976;51.694;6.256;2023-08-17T00:27:12;7.13;;;2.37;;
3922;SDS011;1976;51.694;6.256;2023-08-17T00:29:38;5.50;;;2.00;;
3922;SDS011;1976;51.694;6.256;2023-08-17T00:32:03;5.03;;;1.90;;
3922;SDS011;1976;51.694;6.256;2023-08-17T00:34:29;4.70;;;2.60;;
3922;SDS011;1976;51.694;6.256;2023-08-17T00:36:55;2.53;;;2.00;;
3922;SDS011;1976;51.694;6.256;2023-08-17T00:39:21;8.27;;;2.20;;
3922;SDS011;1976;51.694;6.256;2023-08-17T00:41:46;3.23;;;1.90;;
3922;SDS011;1976;51.694;6.256;2023-08-17T00:44:12;6.07;;;2.00;;
3922;SDS011;1976;51.694;6.256;2023-08-17T00:46:38;2.87;;;2.07;;
3922;SDS011;1976;51.694;6.256;2023-08-17T00:49:04;5.50;;;1.80;;
3922;SDS011;1976;51.694;6.256;2023-08-17T00:51:31;3.33;;;1.60;;
3922;SDS011;1976;51.694;6.256;2023-08-17T00:54:00;4.93;;;2.33;;
3922;SDS011;1976;51.694;6.256;2023-08-17T00:56:27;8.43;;;2.33;;
3922;SDS011;1976;51.694;6.256;2023-08-17T00:58:54;8.33;;;2.23;;
3922;SDS011;1976;51.694;6.256;2023-08-17T01:01:20;3.10;;;1.70;;
3922;SDS011;1976;51.694;6.256;2023-08-17T01:03:47;10.13;;;2.67;;
3922;SDS011;1976;51.694;6.256;2023-08-17T01:06:12;4.70;;;2.40;;
3922;SDS011;1976;51.694;6.256;2023-08-17T01:08:38;12.00;;;2.40;;
3922;SDS011;1976;51.694;6.256;2023-08-17T01:16:23;2.30;;;2.10;;
3922;SDS011;1976;51.694;6.256;2023-08-17T01:18:52;12.57;;;2.57;;
3922;SDS011;1976;51.694;6.256;2023-08-17T01:21:20;11.23;;;3.00;;
3922;SDS011;1976;51.694;6.256;2023-08-17T01:23:49;6.63;;;2.50;;
3922;SDS011;1976;51.694;6.256;2023-08-17T01:26:16;9.93;;;3.00;;
3922;SDS011;1976;51.694;6.256;2023-08-17T01:32:09;5.60;;;2.40;;
3922;SDS011;1976;51.694;6.256;2023-08-17T01:34:44;6.83;;;2.50;;
3922;SDS011;1976;51.694;6.256;2023-08-17T01:37:15;4.60;;;2.80;;
3922;SDS011;1976;51.694;6.256;2023-08-17T01:39:44;8.30;;;2.80;;
3922;SDS011;1976;51.694;6.256;2023-08-17T01:42:16;6.30;;;2.70;;
3922;SDS011;1976;51.694;6.256;2023-08-17T01:44:42;4.83;;;2.87;;
3922;SDS011;1976;51.694;6.256;2023-08-17T01:47:08;11.60;;;2.57;;
3922;SDS011;1976;51.694;6.256;2023-08-17T01:49:35;10.20;;;3.10;;
3922;SDS011;1976;51.694;6.256;2023-08-17T01:52:01;4.60;;;2.57;;
3922;SDS011;1976;51.694;6.256;2023-08-17T01:54:27;8.33;;;2.70;;
3922;SDS011;1976;51.694;6.256;2023-08-17T01:56:53;7.80;;;3.77;;
3922;SDS011;1976;51.694;6.256;2023-08-17T01:59:18;8.63;;;2.60;;
3922;SDS011;1976;51.694;6.256;2023-08-17T02:01:44;5.33;;;2.70;;
3922;SDS011;1976;51.694;6.256;2023-08-17T02:04:09;3.87;;;2.70;;
3922;SDS011;1976;51.694;6.256;2023-08-17T02:06:35;7.37;;;2.87;;
3922;SDS011;1976;51.694;6.256;2023-08-17T02:09:00;3.90;;;2.77;;
3922;SDS011;1976;51.694;6.256;2023-08-17T02:11:26;12.13;;;3.03;;
3922;SDS011;1976;51.694;6.256;2023-08-17T02:13:52;6.63;;;3.37;;
3922;SDS011;1976;51.694;6.256;2023-08-17T02:16:17;10.70;;;3.23;;
3922;SDS011;1976;51.694;6.256;2023-08-17T02:18:43;8.57;;;3.47;;
3922;SDS011;1976;51.694;6.256;2023-08-17T02:21:08;5.77;;;3.50;;
3922;SDS011;1976;51.694;6.256;2023-08-17T02:23:34;5.67;;;3.13;;
3922;SDS011;1976;51.694;6.256;2023-08-17T02:26:00;8.20;;;2.93;;
3922;SDS011;1976;51.694;6.256;2023-08-17T02:28:25;4.97;;;2.80;;
3922;SDS011;1976;51.694;6.256;2023-08-17T02:30:55;9.60;;;3.43;;
3922;SDS011;1976;51.694;6.256;2023-08-17T02:33:21;3.73;;;2.40;;
3922;SDS011;1976;51.694;6.256;2023-08-17T02:35:50;14.67;;;2.87;;
3922;SDS011;1976;51.694;6.256;2023-08-17T02:38:17;3.80;;;2.50;;
3922;SDS011;1976;51.694;6.256;2023-08-17T02:40:43;10.03;;;2.70;;
3922;SDS011;1976;51.694;6.256;2023-08-17T02:43:08;4.10;;;2.37;;
3922;SDS011;1976;51.694;6.256;2023-08-17T02:45:34;2.90;;;2.43;;
3922;SDS011;1976;51.694;6.256;2023-08-17T02:48:00;3.80;;;2.60;;
3922;SDS011;1976;51.694;6.256;2023-08-17T02:50:25;9.63;;;2.90;;
3922;SDS011;1976;51.694;6.256;2023-08-17T02:52:51;7.40;;;2.80;;
3922;SDS011;1976;51.694;6.256;2023-08-17T02:55:17;3.03;;;2.30;;
3922;SDS011;1976;51.694;6.256;2023-08-17T02:57:42;3.10;;;2.00;;
3922;SDS011;1976;51.694;6.256;2023-08-17T03:00:08;5.20;;;2.50;;
3922;SDS011;1976;51.694;6.256;2023-08-17T03:02:34;5.77;;;2.20;;
3922;SDS011;1976;51.694;6.256;2023-08-17T03:04:59;4.10;;;2.50;;
3922;SDS011;1976;51.694;6.256;2023-08-17T03:07:25;6.13;;;2.47;;
3922;SDS011;1976;51.694;6.256;2023-08-17T03:09:51;7.70;;;2.10;;
3922;SDS011;1976;51.694;6.256;2023-08-17T03:12:16;8.23;;;2.90;;
3922;SDS011;1976;51.694;6.256;2023-08-17T03:14:42;5.63;;;2.43;;
3922;SDS011;1976;51.694;6.256;2023-08-17T03:17:07;8.37;;;2.70;;
3922;SDS011;1976;51.694;6.256;2023-08-17T03:19:33;9.10;;;3.23;;
3922;SDS011;1976;51.694;6.256;2023-08-17T03:21:58;5.10;;;2.30;;
3922;SDS011;1976;51.694;6.256;2023-08-17T03:24:24;9.20;;;3.17;;
3922;SDS011;1976;51.694;6.256;2023-08-17T03:26:49;10.57;;;2.83;;
3922;SDS011;1976;51.694;6.256;2023-08-17T03:29:15;9.13;;;3.40;;
3922;SDS011;1976;51.694;6.256;2023-08-17T03:31:41;6.60;;;3.30;;
3922;SDS011;1976;51.694;6.256;2023-08-17T03:34:06;4.77;;;2.97;;
3922;SDS011;1976;51.694;6.256;2023-08-17T03:36:32;6.23;;;2.93;;
3922;SDS011;1976;51.694;6.256;2023-08-17T03:38:57;5.40;;;2.93;;
3922;SDS011;1976;51.694;6.256;2023-08-17T03:41:23;9.00;;;3.10;;
3922;SDS011;1976;51.694;6.256;2023-08-17T03:43:49;5.07;;;2.67;;
3922;SDS011;1976;51.694;6.256;2023-08-17T03:46:15;4.77;;;2.60;;
3922;SDS011;1976;51.694;6.256;2023-08-17T03:48:40;3.67;;;2.90;;
3922;SDS011;1976;51.694;6.256;2023-08-17T03:51:06;9.63;;;3.30;;
3922;SDS011;1976;51.694;6.256;2023-08-17T03:53:31;11.23;;;3.10;;
3922;SDS011;1976;51.694;6.256;2023-08-17T03:55:57;20.77;;;3.40;;
3922;SDS011;1976;51.694;6.256;2023-08-17T03:58:22;11.30;;;3.80;;
3922;SDS011;1976;51.694;6.256;2023-08-17T04:00:51;4.60;;;3.10;;
3922;SDS011;1976;51.694;6.256;2023-08-17T04:03:18;11.03;;;3.30;;
3922;SDS011;1976;51.694;6.256;2023-08-17T04:05:44;9.97;;;3.00;;
3922;SDS011;1976;51.694;6.256;2023-08-17T04:08:09;11.80;;;3.47;;
3922;SDS011;1976;51.694;6.256;2023-08-17T04:10:35;6.83;;;2.83;;
3922;SDS011;1976;51.694;6.256;2023-08-17T04:13:00;6.13;;;3.70;;
3922;SDS011;1976;51.694;6.256;2023-08-17T04:15:26;9.50;;;3.20;;
3922;SDS011;1976;51.694;6.256;2023-08-17T04:17:51;11.63;;;3.80;;
3922;SDS011;1976;51.694;6.256;2023-08-17T04:20:17;7.27;;;3.27;;
3922;SDS011;1976;51.694;6.256;2023-08-17T04:22:46;5.23;;;3.30;;
3922;SDS011;1976;51.694;6.256;2023-08-17T04:25:12;8.73;;;3.03;;
3922;SDS011;1976;51.694;6.256;2023-08-17T04:27:38;6.63;;;2.80;;
3922;SDS011;1976;51.694;6.256;2023-08-17T04:30:04;9.67;;;3.23;;
3922;SDS011;1976;51.694;6.256;2023-08-17T04:32:30;10.60;;;3.60;;
3922;SDS011;1976;51.694;6.256;2023-08-17T04:34:56;11.93;;;3.47;;
3922;SDS011;1976;51.694;6.256;2023-08-17T04:37:22;7.53;;;3.20;;
3922;SDS011;1976;51.694;6.256;2023-08-17T04:39:47;15.67;;;2.70;;
3922;SDS011;1976;51.694;6.256;2023-08-17T04:42:14;16.27;;;3.40;;
3922;SDS011;1976;51.694;6.256;2023-08-17T04:44:39;5.10;;;3.03;;
3922;SDS011;1976;51.694;6.256;2023-08-17T04:47:05;10.80;;;3.60;;
3922;SDS011;1976;51.694;6.256;2023-08-17T04:49:31;6.83;;;2.80;;
3922;SDS011;1976;51.694;6.256;2023-08-17T04:51:57;5.67;;;2.90;;
3922;SDS011;1976;51.694;6.256;2023-08-17T04:54:22;6.67;;;3.20;;
3922;SDS011;1976;51.694;6.256;2023-08-17T04:56:48;4.03;;;2.73;;
3922;SDS011;1976;51.694;6.256;2023-08-17T04:59:13;6.13;;;3.07;;
3922;SDS011;1976;51.694;6.256;2023-08-17T05:01:39;7.53;;;2.67;;
3922;SDS011;1976;51.694;6.256;2023-08-17T05:04:05;2.80;;;2.47;;
3922;SDS011;1976;51.694;6.256;2023-08-17T05:06:30;7.67;;;2.60;;
3922;SDS011;1976;51.694;6.256;2023-08-17T05:08:56;3.97;;;3.20;;
3922;SDS011;1976;51.694;6.256;2023-08-17T05:11:22;12.63;;;3.10;;
3922;SDS011;1976;51.694;6.256;2023-08-17T05:13:48;6.50;;;2.90;;
3922;SDS011;1976;51.694;6.256;2023-08-17T05:16:14;8.70;;;2.90;;
3922;SDS011;1976;51.694;6.256;2023-08-17T05:18:40;8.13;;;3.03;;
3922;SDS011;1976;51.694;6.256;2023-08-17T05:21:05;7.40;;;3.30;;
3922;SDS011;1976;51.694;6.256;2023-08-17T05:23:31;3.80;;;2.43;;
3922;SDS011;1976;51.694;6.256;2023-08-17T05:25:56;10.40;;;3.50;;
3922;SDS011;1976;51.694;6.256;2023-08-17T05:28:22;8.93;;;3.27;;
3922;SDS011;1976;51.694;6.256;2023-08-17T05:30:48;5.80;;;3.10;;
3922;SDS011;1976;51.694;6.256;2023-08-17T05:33:14;10.40;;;2.70;;
3922;SDS011;1976;51.694;6.256;2023-08-17T05:35:39;7.17;;;3.00;;
3922;SDS011;1976;51.694;6.256;2023-08-17T05:38:05;5.53;;;2.50;;
3922;SDS011;1976;51.694;6.256;2023-08-17T05:40:31;6.50;;;2.80;;
3922;SDS011;1976;51.694;6.256;2023-08-17T05:42:57;8.70;;;2.80;;
3922;SDS011;1976;51.694;6.256;2023-08-17T05:45:23;10.80;;;3.40;;
3922;SDS011;1976;51.694;6.256;2023-08-17T05:47:48;5.07;;;2.90;;
3922;SDS011;1976;51.694;6.256;2023-08-17T05:50:14;4.90;;;3.33;;
3922;SDS011;1976;51.694;6.256;2023-08-17T05:52:40;13.80;;;4.60;;
3922;SDS011;1976;51.694;6.256;2023-08-17T05:55:06;3.70;;;2.60;;
3922;SDS011;1976;51.694;6.256;2023-08-17T05:57:32;3.97;;;2.83;;
3922;SDS011;1976;51.694;6.256;2023-08-17T05:59:58;11.53;;;2.80;;
3922;SDS011;1976;51.694;6.256;2023-08-17T06:02:24;11.27;;;3.40;;
3922;SDS011;1976;51.694;6.256;2023-08-17T06:04:49;17.83;;;3.40;;
3922;SDS011;1976;51.694;6.256;2023-08-17T06:07:15;3.60;;;2.67;;
3922;SDS011;1976;51.694;6.256;2023-08-17T06:09:40;4.57;;;2.40;;
3922;SDS011;1976;51.694;6.256;2023-08-17T06:12:06;11.53;;;3.00;;
3922;SDS011;1976;51.694;6.256;2023-08-17T06:14:33;6.23;;;2.93;;
3922;SDS011;1976;51.694;6.256;2023-08-17T06:16:59;7.83;;;3.20;;
3922;SDS011;1976;51.694;6.256;2023-08-17T06:19:25;4.37;;;2.63;;
3922;SDS011;1976;51.694;6.256;2023-08-17T06:21:50;4.60;;;2.90;;
3922;SDS011;1976;51.694;6.256;2023-08-17T06:24:16;6.03;;;2.80;;
3922;SDS011;1976;51.694;6.256;2023-08-17T06:26:43;6.43;;;3.00;;
3922;SDS011;1976;51.694;6.256;2023-08-17T06:29:09;4.33;;;2.53;;
3922;SDS011;1976;51.694;6.256;2023-08-17T06:31:34;6.60;;;3.03;;
3922;SDS011;1976;51.694;6.256;2023-08-17T06:34:00;6.17;;;2.83;;
3922;SDS011;1976;51.694;6.256;2023-08-17T06:36:29;10.67;;;2.70;;
3922;SDS011;1976;51.694;6.256;2023-08-17T06:38:56;4.70;;;3.13;;
3922;SDS011;1976;51.694;6.256;2023-08-17T06:41:21;8.67;;;2.80;;
3922;SDS011;1976;51.694;6.256;2023-08-17T06:43:47;3.60;;;2.50;;
3922;SDS011;1976;51.694;6.256;2023-08-17T06:46:12;8.30;;;2.97;;
3922;SDS011;1976;51.694;6.256;2023-08-17T06:48:38;8.90;;;3.10;;
3922;SDS011;1976;51.694;6.256;2023-08-17T06:51:03;10.00;;;3.27;;
3922;SDS011;1976;51.694;6.256;2023-08-17T06:53:30;4.67;;;2.60;;
3922;SDS011;1976;51.694;6.256;2023-08-17T06:55:55;17.77;;;2.70;;
3922;SDS011;1976;51.694;6.256;2023-08-17T06:58:21;13.60;;;4.10;;
3922;SDS011;1976;51.694;6.256;2023-08-17T07:00:47;14.50;;;3.30;;
3922;SDS011;1976;51.694;6.256;2023-08-17T07:03:12;6.27;;;2.97;;
3922;SDS011;1976;51.694;6.256;2023-08-17T07:05:38;4.53;;;2.73;;
3922;SDS011;1976;51.694;6.256;2023-08-17T07:08:03;9.47;;;2.73;;
3922;SDS011;1976;51.694;6.256;2023-08-17T07:10:29;18.57;;;3.80;;
3922;SDS011;1976;51.694;6.256;2023-08-17T07:12:55;4.60;;;2.20;;
3922;SDS011;1976;51.694;6.256;2023-08-17T07:15:21;6.57;;;2.93;;
3922;SDS011;1976;51.694;6.256;2023-08-17T07:17:46;7.87;;;2.77;;
3922;SDS011;1976;51.694;6.256;2023-08-17T07:20:12;4.03;;;2.83;;
3922;SDS011;1976;51.694;6.256;2023-08-17T07:22:37;3.03;;;2.43;;
3922;SDS011;1976;51.694;6.256;2023-08-17T07:25:03;6.77;;;2.60;;
3922;SDS011;1976;51.694;6.256;2023-08-17T07:27:29;3.50;;;2.27;;
3922;SDS011;1976;51.694;6.256;2023-08-17T07:29:55;6.30;;;2.80;;
3922;SDS011;1976;51.694;6.256;2023-08-17T07:32:21;8.80;;;2.50;;
3922;SDS011;1976;51.694;6.256;2023-08-17T07:34:47;9.47;;;2.50;;
3922;SDS011;1976;51.694;6.256;2023-08-17T07:37:13;4.97;;;2.20;;
3922;SDS011;1976;51.694;6.256;2023-08-17T07:39:39;3.07;;;2.20;;
3922;SDS011;1976;51.694;6.256;2023-08-17T07:42:05;9.03;;;2.47;;
3922;SDS011;1976;51.694;6.256;2023-08-17T07:44:31;7.83;;;2.77;;
3922;SDS011;1976;51.694;6.256;2023-08-17T07:46:58;5.23;;;2.63;;
3922;SDS011;1976;51.694;6.256;2023-08-17T07:49:24;3.97;;;2.50;;
3922;SDS011;1976;51.694;6.256;2023-08-17T07:51:50;9.00;;;2.43;;
3922;SDS011;1976;51.694;6.256;2023-08-17T07:54:16;4.13;;;2.83;;
3922;SDS011;1976;51.694;6.256;2023-08-17T07:56:42;6.00;;;2.90;;
3922;SDS011;1976;51.694;6.256;2023-08-17T07:59:07;7.57;;;2.77;;
3922;SDS011;1976;51.694;6.256;2023-08-17T08:01:33;5.17;;;2.70;;
3922;SDS011;1976;51.694;6.256;2023-08-17T08:03:58;13.60;;;2.67;;
3922;SDS011;1976;51.694;6.256;2023-08-17T08:06:24;4.27;;;2.70;;
3922;SDS011;1976;51.694;6.256;2023-08-17T08:08:50;11.07;;;3.30;;
3922;SDS011;1976;51.694;6.256;2023-08-17T08:11:15;7.67;;;3.60;;
3922;SDS011;1976;51.694;6.256;2023-08-17T08:13:41;8.03;;;3.00;;
3922;SDS011;1976;51.694;6.256;2023-08-17T08:16:06;7.83;;;2.97;;
3922;SDS011;1976;51.694;6.256;2023-08-17T08:18:32;4.27;;;2.70;;
3922;SDS011;1976;51.694;6.256;2023-08-17T08:20:57;3.50;;;2.37;;
3922;SDS011;1976;51.694;6.256;2023-08-17T08:23:23;6.20;;;3.60;;
3922;SDS011;1976;51.694;6.256;2023-08-17T08:25:48;9.47;;;3.00;;
3922;SDS011;1976;51.694;6.256;2023-08-17T08:28:14;6.67;;;3.30;;
3922;SDS011;1976;51.694;6.256;2023-08-17T08:30:40;11.13;;;3.93;;
3922;SDS011;1976;51.694;6.256;2023-08-17T08:33:05;6.50;;;3.20;;
3922;SDS011;1976;51.694;6.256;2023-08-17T08:35:31;4.07;;;3.00;;
3922;SDS011;1976;51.694;6.256;2023-08-17T08:37:58;10.97;;;3.67;;
3922;SDS011;1976;51.694;6.256;2023-08-17T08:40:28;16.90;;;4.13;;
3922;SDS011;1976;51.694;6.256;2023-08-17T08:42:55;11.53;;;3.87;;
3922;SDS011;1976;51.694;6.256;2023-08-17T08:45:22;7.23;;;3.60;;
3922;SDS011;1976;51.694;6.256;2023-08-17T08:47:48;8.53;;;4.00;;
3922;SDS011;1976;51.694;6.256;2023-08-17T08:50:16;21.07;;;4.10;;
3922;SDS011;1976;51.694;6.256;2023-08-17T08:52:44;12.43;;;4.33;;
3922;SDS011;1976;51.694;6.256;2023-08-17T08:55:25;3.83;;;2.80;;
3922;SDS011;1976;51.694;6.256;2023-08-17T08:57:54;8.70;;;3.90;;
3922;SDS011;1976;51.694;6.256;2023-08-17T09:00:21;5.50;;;3.90;;
3922;SDS011;1976;51.694;6.256;2023-08-17T09:02:48;11.47;;;4.43;;
3922;SDS011;1976;51.694;6.256;2023-08-17T09:05:15;9.10;;;4.20;;
3922;SDS011;1976;51.694;6.256;2023-08-17T09:07:42;6.93;;;3.47;;
3922;SDS011;1976;51.694;6.256;2023-08-17T09:10:11;11.60;;;3.90;;
3922;SDS011;1976;51.694;6.256;2023-08-17T09:12:36;5.40;;;3.53;;
3922;SDS011;1976;51.694;6.256;2023-08-17T09:15:04;16.83;;;4.47;;
3922;SDS011;1976;51.694;6.256;2023-08-17T09:17:31;11.33;;;4.50;;
3922;SDS011;1976;51.694;6.256;2023-08-17T09:19:59;8.57;;;4.03;;
3922;SDS011;1976;51.694;6.256;2023-08-17T09:22:25;15.70;;;4.97;;
3922;SDS011;1976;51.694;6.256;2023-08-17T09:25:00;6.90;;;4.20;;
3922;SDS011;1976;51.694;6.256;2023-08-17T09:27:26;12.17;;;4.43;;
3922;SDS011;1976;51.694;6.256;2023-08-17T09:29:51;9.50;;;4.50;;
3922;SDS011;1976;51.694;6.256;2023-08-17T09:32:17;12.43;;;5.50;;
3922;SDS011;1976;51.694;6.256;2023-08-17T09:34:43;10.23;;;4.20;;
3922;SDS011;1976;51.694;6.256;2023-08-17T09:37:09;7.60;;;4.30;;
3922;SDS011;1976;51.694;6.256;2023-08-17T09:39:38;6.30;;;4.43;;
3922;SDS011;1976;51.694;6.256;2023-08-17T09:42:04;11.90;;;4.83;;
3922;SDS011;1976;51.694;6.256;2023-08-17T09:44:32;12.03;;;4.10;;
3922;SDS011;1976;51.694;6.256;2023-08-17T09:46:58;7.80;;;4.17;;
3922;SDS011;1976;51.694;6.256;2023-08-17T09:49:24;9.10;;;4.43;;
3922;SDS011;1976;51.694;6.256;2023-08-17T09:51:50;13.17;;;5.03;;
3922;SDS011;1976;51.694;6.256;2023-08-17T09:54:23;12.70;;;4.77;;
3922;SDS011;1976;51.694;6.256;2023-08-17T09:56:52;14.13;;;4.97;;
3922;SDS011;1976;51.694;6.256;2023-08-17T09:59:18;7.07;;;4.27;;
3922;SDS011;1976;51.694;6.256;2023-08-17T10:01:45;9.17;;;4.27;;
3922;SDS011;1976;51.694;6.256;2023-08-17T10:04:13;10.80;;;4.60;;
3922;SDS011;1976;51.694;6.256;2023-08-17T10:06:44;11.03;;;4.50;;
3922;SDS011;1976;51.694;6.256;2023-08-17T10:09:13;8.97;;;4.50;;
3922;SDS011;1976;51.694;6.256;2023-08-17T10:11:44;12.17;;;4.57;;
3922;SDS011;1976;51.694;6.256;2023-08-17T10:14:13;9.13;;;4.70;;
3922;SDS011;1976;51.694;6.256;2023-08-17T10:16:49;12.70;;;4.83;;
3922;SDS011;1976;51.694;6.256;2023-08-17T10:19:29;5.63;;;4.23;;
3922;SDS011;1976;51.694;6.256;2023-08-17T10:22:20;11.80;;;4.00;;
3922;SDS011;1976;51.694;6.256;2023-08-17T10:24:55;9.40;;;4.37;;
3922;SDS011;1976;51.694;6.256;2023-08-17T10:27:24;11.10;;;5.93;;
3922;SDS011;1976;51.694;6.256;2023-08-17T10:29:51;10.57;;;4.53;;
3922;SDS011;1976;51.694;6.256;2023-08-17T10:32:20;9.60;;;4.60;;
3922;SDS011;1976;51.694;6.256;2023-08-17T10:34:46;28.67;;;5.20;;
3922;SDS011;1976;51.694;6.256;2023-08-17T10:37:13;6.30;;;4.30;;
3922;SDS011;1976;51.694;6.256;2023-08-17T10:39:46;11.33;;;5.07;;
3922;SDS011;1976;51.694;6.256;2023-08-17T10:42:13;10.20;;;4.80;;
3922;SDS011;1976;51.694;6.256;2023-08-17T10:47:21;11.43;;;5.20;;
3922;SDS011;1976;51.694;6.256;2023-08-17T10:49:52;5.93;;;4.40;;
3922;SDS011;1976;51.694;6.256;2023-08-17T10:52:30;7.43;;;4.90;;
3922;SDS011;1976;51.694;6.256;2023-08-17T10:55:07;14.20;;;5.00;;
3922;SDS011;1976;51.694;6.256;2023-08-17T10:57:38;13.97;;;5.87;;
3922;SDS011;1976;51.694;6.256;2023-08-17T11:00:17;10.80;;;4.80;;
3922;SDS011;1976;51.694;6.256;2023-08-17T11:03:00;17.03;;;4.67;;
3922;SDS011;1976;51.694;6.256;2023-08-17T11:08:07;14.83;;;6.17;;
3922;SDS011;1976;51.694;6.256;2023-08-17T11:10:39;13.07;;;5.47;;
3922;SDS011;1976;51.694;6.256;2023-08-17T11:13:05;9.00;;;5.97;;
3922;SDS011;1976;51.694;6.256;2023-08-17T11:15:39;7.90;;;4.83;;
3922;SDS011;1976;51.694;6.256;2023-08-17T11:18:10;8.13;;;5.07;;
3922;SDS011;1976;51.694;6.256;2023-08-17T11:20:37;12.63;;;5.60;;
3922;SDS011;1976;51.694;6.256;2023-08-17T11:23:05;9.80;;;5.50;;
3922;SDS011;1976;51.694;6.256;2023-08-17T11:25:31;7.80;;;5.17;;
3922;SDS011;1976;51.694;6.256;2023-08-17T11:27:58;7.80;;;5.00;;
3922;SDS011;1976;51.694;6.256;2023-08-17T11:30:28;14.40;;;4.90;;
3922;SDS011;1976;51.694;6.256;2023-08-17T11:32:54;12.37;;;5.37;;
3922;SDS011;1976;51.694;6.256;2023-08-17T11:35:21;14.23;;;5.20;;
3922;SDS011;1976;51.694;6.256;2023-08-17T11:37:47;13.93;;;5.13;;
3922;SDS011;1976;51.694;6.256;2023-08-17T11:40:14;13.63;;;5.10;;
3922;SDS011;1976;51.694;6.256;2023-08-17T11:42:41;13.47;;;5.10;;
3922;SDS011;1976;51.694;6.256;2023-08-17T11:45:07;9.00;;;5.27;;
3922;SDS011;1976;51.694;6.256;2023-08-17T11:47:39;9.23;;;4.60;;
3922;SDS011;1976;51.694;6.256;2023-08-17T11:50:06;9.70;;;5.87;;
3922;SDS011;1976;51.694;6.256;2023-08-17T11:52:34;12.67;;;5.70;;
3922;SDS011;1976;51.694;6.256;2023-08-17T11:55:04;10.33;;;5.67;;
3922;SDS011;1976;51.694;6.256;2023-08-17T11:57:35;10.37;;;5.73;;
3922;SDS011;1976;51.694;6.256;2023-08-17T12:00:08;10.97;;;5.60;;
3922;SDS011;1976;51.694;6.256;2023-08-17T12:02:35;19.27;;;5.53;;
3922;SDS011;1976;51.694;6.256;2023-08-17T12:05:07;7.57;;;5.23;;
3922;SDS011;1976;51.694;6.256;2023-08-17T12:07:34;9.13;;;5.87;;
3922;SDS011;1976;51.694;6.256;2023-08-17T12:10:02;9.23;;;5.37;;
3922;SDS011;1976;51.694;6.256;2023-08-17T12:12:29;15.47;;;6.03;;
3922;SDS011;1976;51.694;6.256;2023-08-17T12:14:55;14.40;;;5.67;;
3922;SDS011;1976;51.694;6.256;2023-08-17T12:17:22;10.70;;;5.80;;
3922;SDS011;1976;51.694;6.256;2023-08-17T12:19:48;8.90;;;6.10;;
3922;SDS011;1976;51.694;6.256;2023-08-17T12:22:16;9.60;;;5.80;;
3922;SDS011;1976;51.694;6.256;2023-08-17T12:24:42;11.23;;;5.33;;
3922;SDS011;1976;51.694;6.256;2023-08-17T12:27:09;16.23;;;5.47;;
3922;SDS011;1976;51.694;6.256;2023-08-17T12:29:45;15.73;;;4.60;;
3922;SDS011;1976;51.694;6.256;2023-08-17T12:32:13;8.37;;;5.10;;
3922;SDS011;1976;51.694;6.256;2023-08-17T12:34:40;7.67;;;4.80;;
3922;SDS011;1976;51.694;6.256;2023-08-17T12:37:07;8.37;;;5.50;;
3922;SDS011;1976;51.694;6.256;2023-08-17T12:39:37;10.63;;;5.30;;
3922;SDS011;1976;51.694;6.256;2023-08-17T12:42:03;14.27;;;5.00;;
3922;SDS011;1976;51.694;6.256;2023-08-17T12:44:30;7.93;;;5.40;;
3922;SDS011;1976;51.694;6.256;2023-08-17T12:46:56;12.60;;;6.23;;
3922;SDS011;1976;51.694;6.256;2023-08-17T12:49:24;15.80;;;7.17;;
3922;SDS011;1976;51.694;6.256;2023-08-17T12:51:50;10.57;;;5.60;;
3922;SDS011;1976;51.694;6.256;2023-08-17T12:54:17;8.07;;;5.87;;
3922;SDS011;1976;51.694;6.256;2023-08-17T12:56:43;11.10;;;5.70;;
3922;SDS011;1976;51.694;6.256;2023-08-17T12:59:10;7.63;;;5.90;;
3922;SDS011;1976;51.694;6.256;2023-08-17T13:01:36;11.80;;;6.03;;
3922;SDS011;1976;51.694;6.256;2023-08-17T13:04:03;10.57;;;6.60;;
3922;SDS011;1976;51.694;6.256;2023-08-17T13:06:29;11.40;;;6.30;;
3922;SDS011;1976;51.694;6.256;2023-08-17T13:08:55;11.13;;;6.37;;
3922;SDS011;1976;51.694;6.256;2023-08-17T13:11:21;15.33;;;7.50;;
3922;SDS011;1976;51.694;6.256;2023-08-17T13:13:47;8.97;;;5.47;;
3922;SDS011;1976;51.694;6.256;2023-08-17T13:16:12;8.57;;;5.77;;
3922;SDS011;1976;51.694;6.256;2023-08-17T13:18:38;9.50;;;5.50;;
3922;SDS011;1976;51.694;6.256;2023-08-17T13:21:04;8.40;;;5.97;;
3922;SDS011;1976;51.694;6.256;2023-08-17T13:23:30;8.57;;;4.93;;
3922;SDS011;1976;51.694;6.256;2023-08-17T13:25:55;8.10;;;6.47;;
3922;SDS011;1976;51.694;6.256;2023-08-17T13:28:21;15.93;;;6.53;;
3922;SDS011;1976;51.694;6.256;2023-08-17T13:30:47;9.00;;;5.10;;
3922;SDS011;1976;51.694;6.256;2023-08-17T13:33:13;10.30;;;5.60;;
3922;SDS011;1976;51.694;6.256;2023-08-17T13:35:39;14.17;;;6.07;;
3922;SDS011;1976;51.694;6.256;2023-08-17T13:38:05;10.27;;;6.30;;
3922;SDS011;1976;51.694;6.256;2023-08-17T13:40:31;18.20;;;6.23;;
3922;SDS011;1976;51.694;6.256;2023-08-17T13:42:58;9.13;;;5.53;;
3922;SDS011;1976;51.694;6.256;2023-08-17T13:45:25;14.00;;;5.47;;
3922;SDS011;1976;51.694;6.256;2023-08-17T13:47:51;9.30;;;6.23;;
3922;SDS011;1976;51.694;6.256;2023-08-17T13:50:17;9.07;;;5.90;;
3922;SDS011;1976;51.694;6.256;2023-08-17T13:52:44;11.30;;;6.17;;
3922;SDS011;1976;51.694;6.256;2023-08-17T13:55:10;8.23;;;6.00;;
3922;SDS011;1976;51.694;6.256;2023-08-17T13:57:36;7.87;;;5.47;;
3922;SDS011;1976;51.694;6.256;2023-08-17T14:00:02;9.63;;;6.37;;
3922;SDS011;1976;51.694;6.256;2023-08-17T14:02:29;13.30;;;5.67;;
3922;SDS011;1976;51.694;6.256;2023-08-17T14:04:55;15.20;;;6.07;;
3922;SDS011;1976;51.694;6.256;2023-08-17T14:07:21;8.77;;;6.30;;
3922;SDS011;1976;51.694;6.256;2023-08-17T14:09:47;9.53;;;6.10;;
3922;SDS011;1976;51.694;6.256;2023-08-17T14:12:12;7.97;;;5.40;;
3922;SDS011;1976;51.694;6.256;2023-08-17T14:14:38;11.90;;;6.03;;
3922;SDS011;1976;51.694;6.256;2023-08-17T14:17:04;6.70;;;5.77;;
3922;SDS011;1976;51.694;6.256;2023-08-17T14:19:29;6.13;;;5.30;;
3922;SDS011;1976;51.694;6.256;2023-08-17T14:21:56;7.53;;;6.60;;
3922;SDS011;1976;51.694;6.256;2023-08-17T14:24:22;9.70;;;7.07;;
3922;SDS011;1976;51.694;6.256;2023-08-17T14:26:47;10.90;;;6.60;;
3922;SDS011;1976;51.694;6.256;2023-08-17T14:29:13;10.23;;;6.53;;
3922;SDS011;1976;51.694;6.256;2023-08-17T14:31:39;12.20;;;7.27;;
3922;SDS011;1976;51.694;6.256;2023-08-17T14:34:04;9.97;;;7.33;;
3922;SDS011;1976;51.694;6.256;2023-08-17T14:36:30;10.47;;;7.33;;
3922;SDS011;1976;51.694;6.256;2023-08-17T14:38:55;9.60;;;7.20;;
3922;SDS011;1976;51.694;6.256;2023-08-17T14:41:21;9.80;;;6.10;;
3922;SDS011;1976;51.694;6.256;2023-08-17T14:43:47;8.60;;;6.47;;
3922;SDS011;1976;51.694;6.256;2023-08-17T14:46:12;14.33;;;8.00;;
3922;SDS011;1976;51.694;6.256;2023-08-17T14:48:38;9.60;;;6.57;;
3922;SDS011;1976;51.694;6.256;2023-08-17T14:51:04;11.87;;;6.73;;
3922;SDS011;1976;51.694;6.256;2023-08-17T14:53:30;13.20;;;7.27;;
3922;SDS011;1976;51.694;6.256;2023-08-17T14:55:56;13.73;;;7.40;;
3922;SDS011;1976;51.694;6.256;2023-08-17T14:58:21;11.97;;;7.60;;
3922;SDS011;1976;51.694;6.256;2023-08-17T15:00:47;13.10;;;7.83;;
3922;SDS011;1976;51.694;6.256;2023-08-17T15:03:12;13.07;;;7.67;;
3922;SDS011;1976;51.694;6.256;2023-08-17T15:05:38;12.60;;;7.13;;
3922;SDS011;1976;51.694;6.256;2023-08-17T15:08:04;12.43;;;7.40;;
3922;SDS011;1976;51.694;6.256;2023-08-17T15:10:30;14.33;;;7.80;;
3922;SDS011;1976;51.694;6.256;2023-08-17T15:12:57;16.70;;;7.77;;
3922;SDS011;1976;51.694;6.256;2023-08-17T15:15:23;12.77;;;7.70;;
3922;SDS011;1976;51.694;6.256;2023-08-17T15:17:48;9.70;;;6.90;;
3922;SDS011;1976;51.694;6.256;2023-08-17T15:20:14;14.23;;;7.30;;